createdAt,value
2022-11-01T00:00:11.411Z,74.81
2022-11-01T00:02:47.124Z,74.71
2022-11-01T00:05:19.794Z,74.58
2022-11-01T00:07:53.965Z,74.70
2022-11-01T00:10:26.676Z,74.77
2022-11-01T00:12:59.486Z,74.38
2022-11-01T00:15:33.533Z,74.35
2022-11-01T00:18:06.272Z,74.68
2022-11-01T00:20:38.961Z,74.69
2022-11-01T00:23:12.349Z,74.83
2022-11-01T00:25:45.028Z,74.66
2022-11-01T00:28:17.735Z,74.66
2022-11-01T00:30:54.478Z,75.04
2022-11-01T00:33:27.518Z,74.78
2022-11-01T00:36:01.844Z,74.99
2022-11-01T00:38:35.412Z,74.99
2022-11-01T00:41:08.759Z,74.60
2022-11-01T00:43:41.667Z,74.87
2022-11-01T00:46:15.737Z,74.48
2022-11-01T00:48:48.492Z,74.71
2022-11-01T00:51:21.171Z,74.48
2022-11-01T00:53:54.011Z,74.72
2022-11-01T00:56:26.696Z,75.13
2022-11-01T00:58:59.322Z,74.90
2022-11-01T01:01:33.606Z,75.18
2022-11-01T01:04:06.746Z,75.19
2022-11-01T01:06:39.511Z,76.01
2022-11-01T01:09:12.683Z,75.36
2022-11-01T01:11:45.444Z,75.74
2022-11-01T01:14:18.277Z,75.73
2022-11-01T01:16:52.373Z,75.15
2022-11-01T01:19:25.415Z,75.70
2022-11-01T01:21:58.163Z,76.00
2022-11-01T01:24:31.197Z,75.76
2022-11-01T01:27:04.437Z,75.99
2022-11-01T01:29:41.678Z,76.26
2022-11-01T01:32:16.477Z,76.11
2022-11-01T01:34:49.795Z,76.41
2022-11-01T01:37:22.663Z,76.19
2022-11-01T01:39:55.508Z,76.44
2022-11-01T01:42:30.538Z,76.09
2022-11-01T01:45:24.447Z,75.96
2022-11-01T01:48:02.885Z,76.48
2022-11-01T01:50:40.831Z,76.94
2022-11-01T01:53:18.920Z,76.71
2022-11-01T01:55:58.081Z,76.87
2022-11-01T01:58:34.606Z,76.37
2022-11-01T02:01:07.407Z,76.13
2022-11-01T02:03:41.924Z,76.04
2022-11-01T02:06:17.047Z,75.05
2022-11-01T02:08:53.448Z,74.94
2022-11-01T02:11:26.565Z,74.69
2022-11-01T02:13:59.846Z,74.88
2022-11-01T02:16:53.175Z,74.65
2022-11-01T02:19:56.704Z,74.63
2022-11-01T02:22:48.641Z,74.89
2022-11-01T02:25:40.302Z,74.42
2022-11-01T02:28:33.965Z,74.33
2022-11-01T02:31:19.987Z,73.92
2022-11-01T02:33:58.822Z,74.09
2022-11-01T02:36:37.092Z,73.68
2022-11-01T02:39:16.496Z,73.35
2022-11-01T02:41:55.167Z,73.36
2022-11-01T02:44:34.033Z,73.19
2022-11-01T02:47:07.523Z,73.35
2022-11-01T02:49:43.886Z,72.60
2022-11-01T02:52:20.846Z,73.00
2022-11-01T02:54:57.777Z,72.80
2022-11-01T02:57:36.045Z,72.89
2022-11-01T03:00:21.254Z,72.41
2022-11-01T03:03:01.666Z,72.43
2022-11-01T03:05:54.107Z,72.90
2022-11-01T03:08:29.981Z,72.60
2022-11-01T03:11:07.624Z,72.81
2022-11-01T03:14:00.567Z,72.46
2022-11-01T03:16:37.057Z,73.22
2022-11-01T03:19:26.337Z,72.77
2022-11-01T03:22:07.563Z,72.95
2022-11-01T03:24:46.785Z,72.68
2022-11-01T03:27:28.896Z,71.98
2022-11-01T03:30:05.637Z,72.49
2022-11-01T03:32:45.467Z,72.26
2022-11-01T03:35:22.394Z,72.19
2022-11-01T03:38:01.663Z,71.89
2022-11-01T03:40:36.155Z,72.03
2022-11-01T03:43:13.943Z,71.53
2022-11-01T03:45:46.744Z,71.99
2022-11-01T03:48:19.449Z,71.74
2022-11-01T03:50:53.865Z,71.57
2022-11-01T03:53:28.036Z,71.52
2022-11-01T03:56:01.027Z,71.58
2022-11-01T03:58:42.558Z,71.93
2022-11-01T04:01:17.646Z,71.88
2022-11-01T04:03:50.709Z,72.01
2022-11-01T04:06:23.363Z,71.80
2022-11-01T04:08:57.743Z,71.90
2022-11-01T04:11:31.450Z,71.89
2022-11-01T04:14:21.908Z,71.30
2022-11-01T04:17:12.462Z,71.51
2022-11-01T04:20:04.970Z,71.13
2022-11-01T04:22:38.686Z,71.20
2022-11-01T04:25:12.701Z,70.82
2022-11-01T04:27:45.422Z,71.39
2022-11-01T04:30:18.426Z,71.27
2022-11-01T04:32:50.932Z,71.35
2022-11-01T04:35:24.868Z,70.66
2022-11-01T04:37:58.954Z,71.04
2022-11-01T04:40:33.811Z,71.13
2022-11-01T04:43:06.491Z,71.60
2022-11-01T04:45:39.633Z,70.83
2022-11-01T04:48:16.752Z,71.02
2022-11-01T04:50:49.554Z,70.69
2022-11-01T04:53:22.316Z,70.87
2022-11-01T04:55:56.563Z,70.21
2022-11-01T04:58:29.310Z,70.45
2022-11-01T05:01:05.476Z,70.14
2022-11-01T05:03:38.282Z,70.33
2022-11-01T05:06:11.359Z,70.82
2022-11-01T05:08:43.960Z,70.43
2022-11-01T05:11:18.001Z,70.47
2022-11-01T05:13:50.725Z,70.46
2022-11-01T05:16:23.739Z,69.80
2022-11-01T05:18:56.347Z,70.55
2022-11-01T05:21:29.126Z,70.22
2022-11-01T05:24:02.041Z,70.27
2022-11-01T05:26:36.085Z,70.37
2022-11-01T05:29:23.913Z,70.51
2022-11-01T05:31:57.393Z,70.36
2022-11-01T05:34:30.018Z,69.56
2022-11-01T05:37:03.112Z,69.48
2022-11-01T05:39:35.640Z,69.14
2022-11-01T05:42:09.703Z,70.28
2022-11-01T05:44:42.478Z,69.41
2022-11-01T05:47:17.459Z,69.21
2022-11-01T05:49:50.304Z,68.92
2022-11-01T05:52:23.139Z,68.54
2022-11-01T05:54:55.750Z,68.84
2022-11-01T05:57:33.437Z,69.29
2022-11-01T06:00:07.654Z,69.51
2022-11-01T06:02:46.370Z,69.49
2022-11-01T06:05:19.147Z,68.88
2022-11-01T06:07:51.936Z,69.05
2022-11-01T06:10:24.813Z,69.26
2022-11-01T06:12:58.983Z,68.97
2022-11-01T06:15:34.353Z,69.10
2022-11-01T06:18:10.095Z,69.36
2022-11-01T06:20:42.754Z,68.58
2022-11-01T06:23:15.444Z,69.49
2022-11-01T06:25:48.631Z,69.47
2022-11-01T06:28:22.789Z,69.73
2022-11-01T06:30:55.576Z,68.82
2022-11-01T06:33:28.556Z,68.42
2022-11-01T06:36:02.015Z,68.58
2022-11-01T06:38:35.322Z,68.63
2022-11-01T06:41:08.026Z,68.34
2022-11-01T06:43:42.291Z,68.20
2022-11-01T06:46:15.027Z,68.51
2022-11-01T06:48:48.529Z,68.14
2022-11-01T06:51:21.235Z,68.48
2022-11-01T06:53:53.989Z,68.14
2022-11-01T06:56:27.249Z,68.31
2022-11-01T06:59:01.461Z,68.79
2022-11-01T07:01:34.286Z,68.92
2022-11-01T07:04:07.130Z,68.12
2022-11-01T07:06:40.215Z,68.61
2022-11-01T07:09:13.318Z,68.20
2022-11-01T07:11:46.019Z,68.75
2022-11-01T07:14:20.127Z,67.88
2022-11-01T07:17:43.318Z,67.81
2022-11-01T07:20:18.817Z,68.31
2022-11-01T07:23:00.013Z,68.12
2022-11-01T07:25:34.004Z,68.11
2022-11-01T07:28:06.846Z,68.55
2022-11-01T07:30:40.888Z,67.87
2022-11-01T07:33:13.619Z,67.78
2022-11-01T07:35:46.828Z,67.53
2022-11-01T07:38:19.951Z,68.26
2022-11-01T07:40:54.911Z,68.10
2022-11-01T07:43:27.571Z,68.00
2022-11-01T07:46:04.108Z,68.18
2022-11-01T07:48:37.020Z,68.30
2022-11-01T07:51:09.759Z,68.27
2022-11-01T07:53:42.522Z,68.33
2022-11-01T07:56:15.211Z,68.52
2022-11-01T07:58:47.914Z,68.56
2022-11-01T08:01:22.099Z,68.02
2022-11-01T08:03:55.000Z,67.98
2022-11-01T08:06:27.718Z,67.72
2022-11-01T08:09:00.450Z,67.48
2022-11-01T08:11:33.232Z,67.12
2022-11-01T08:14:07.252Z,67.98
2022-11-01T08:16:43.968Z,67.43
2022-11-01T08:19:16.643Z,67.96
2022-11-01T08:21:50.613Z,67.78
2022-11-01T08:24:23.331Z,67.56
2022-11-01T08:26:56.024Z,67.71
2022-11-01T08:29:28.712Z,67.42
2022-11-01T08:32:02.796Z,68.08
2022-11-01T08:34:35.665Z,67.73
2022-11-01T08:37:08.301Z,67.57
2022-11-01T08:39:41.099Z,67.49
2022-11-01T08:42:14.627Z,67.54
2022-11-01T08:44:47.393Z,67.69
2022-11-01T08:47:21.375Z,67.36
2022-11-01T08:49:54.066Z,67.17
2022-11-01T08:52:28.032Z,67.13
2022-11-01T08:55:00.750Z,67.54
2022-11-01T08:57:33.562Z,68.07
2022-11-01T09:00:07.998Z,67.00
2022-11-01T09:02:42.100Z,66.92
2022-11-01T09:05:14.913Z,67.35
2022-11-01T09:07:48.504Z,67.13
2022-11-01T09:10:21.380Z,66.88
2022-11-01T09:12:54.105Z,66.86
2022-11-01T09:15:27.376Z,67.24
2022-11-01T09:18:05.940Z,66.77
2022-11-01T09:20:38.883Z,66.63
2022-11-01T09:23:11.618Z,66.92
2022-11-01T09:25:44.278Z,66.47
2022-11-01T09:28:17.218Z,66.89
2022-11-01T09:31:01.030Z,65.99
2022-11-01T09:33:42.328Z,66.14
2022-11-01T09:36:15.329Z,67.02
2022-11-01T09:38:47.850Z,67.28
2022-11-01T09:41:30.905Z,66.48
2022-11-01T09:44:07.781Z,66.42
2022-11-01T09:46:46.851Z,67.18
2022-11-01T09:49:23.779Z,66.43
2022-11-01T09:51:56.828Z,66.30
2022-11-01T09:54:29.585Z,66.85
2022-11-01T09:57:12.675Z,66.41
2022-11-01T09:59:57.340Z,66.15
2022-11-01T10:02:51.942Z,65.38
2022-11-01T10:05:45.097Z,66.40
2022-11-01T10:08:28.875Z,66.30
2022-11-01T10:11:17.927Z,66.82
2022-11-01T10:14:00.045Z,66.07
2022-11-01T10:16:37.438Z,64.55
2022-11-01T10:19:14.935Z,66.18
2022-11-01T10:21:50.816Z,66.19
2022-11-01T10:24:34.793Z,66.20
2022-11-01T10:27:16.148Z,65.70
2022-11-01T10:29:55.852Z,65.80
2022-11-01T10:32:36.085Z,66.25
2022-11-01T10:35:16.864Z,66.14
2022-11-01T10:38:11.015Z,66.47
2022-11-01T10:40:56.295Z,65.18
2022-11-01T10:43:29.311Z,65.49
2022-11-01T10:46:02.810Z,65.81
2022-11-01T10:48:39.636Z,65.83
2022-11-01T10:51:18.383Z,64.33
2022-11-01T10:53:55.781Z,65.29
2022-11-01T10:56:33.172Z,65.54
2022-11-01T10:59:12.675Z,63.59
2022-11-01T11:01:47.295Z,65.13
2022-11-01T11:04:23.068Z,64.25
2022-11-01T11:06:56.989Z,64.00
2022-11-01T11:09:35.525Z,64.72
2022-11-01T11:12:13.197Z,64.32
2022-11-01T11:14:48.357Z,65.33
2022-11-01T11:17:24.944Z,63.58
2022-11-01T11:20:04.510Z,64.63
2022-11-01T11:22:40.070Z,64.90
2022-11-01T11:25:19.475Z,64.43
2022-11-01T11:27:53.804Z,65.18
2022-11-01T11:30:29.299Z,63.70
2022-11-01T11:33:03.408Z,64.60
2022-11-01T11:35:37.268Z,63.67
2022-11-01T11:38:15.528Z,63.13
2022-11-01T11:40:49.679Z,63.10
2022-11-01T11:43:24.326Z,63.10
2022-11-01T11:46:05.859Z,63.23
2022-11-01T11:48:48.277Z,63.33
2022-11-01T11:51:22.002Z,64.09
2022-11-01T11:54:22.831Z,64.11
2022-11-01T11:57:11.844Z,64.60
2022-11-01T12:02:23.716Z,64.18
2022-11-01T12:04:59.146Z,64.11
2022-11-01T12:07:33.590Z,65.40
2022-11-01T12:10:28.351Z,63.85
2022-11-01T12:13:03.898Z,61.86
2022-11-01T12:15:41.098Z,65.03
2022-11-01T12:18:19.145Z,63.81
2022-11-01T12:20:53.140Z,64.37
2022-11-01T12:23:31.357Z,64.27
2022-11-01T12:26:09.372Z,64.04
2022-11-01T12:28:52.999Z,65.41
2022-11-01T12:31:30.370Z,63.83
2022-11-01T12:34:12.000Z,64.58
2022-11-01T12:36:51.617Z,64.23
2022-11-01T12:39:36.231Z,63.94
2022-11-01T12:42:12.851Z,62.47
2022-11-01T12:44:52.585Z,64.23
2022-11-01T12:47:30.545Z,64.74
2022-11-01T12:50:07.505Z,61.38
2022-11-01T12:52:45.716Z,62.80
2022-11-01T12:55:25.641Z,62.54
2022-11-01T12:57:58.726Z,62.81
2022-11-01T13:00:48.673Z,61.78
2022-11-01T13:03:32.914Z,63.54
2022-11-01T13:06:16.752Z,62.16
2022-11-01T13:08:57.421Z,62.01
2022-11-01T13:11:36.464Z,62.02
2022-11-01T13:14:26.141Z,63.22
2022-11-01T13:17:11.127Z,62.85
2022-11-01T13:19:52.438Z,63.82
2022-11-01T13:22:34.229Z,62.64
2022-11-01T13:25:15.853Z,62.30
2022-11-01T13:27:56.684Z,62.22
2022-11-01T13:30:31.222Z,61.91
2022-11-01T13:33:15.447Z,62.95
2022-11-01T13:35:56.005Z,63.70
2022-11-01T13:38:36.317Z,62.82
2022-11-01T13:41:19.611Z,63.02
2022-11-01T13:43:58.537Z,63.16
2022-11-01T13:46:52.252Z,62.60
2022-11-01T13:49:54.233Z,62.67
2022-11-01T13:52:33.775Z,62.47
2022-11-01T13:55:18.901Z,62.36
2022-11-01T13:57:54.113Z,62.63
2022-11-01T14:00:42.839Z,62.84
2022-11-01T14:03:22.598Z,62.78
2022-11-01T14:09:31.295Z,62.03
2022-11-01T14:12:12.868Z,62.36
2022-11-01T14:14:52.649Z,61.55
2022-11-01T14:18:10.407Z,62.90
2022-11-01T14:20:51.654Z,61.93
2022-11-01T14:24:00.010Z,61.53
2022-11-01T14:26:50.820Z,62.83
2022-11-01T14:29:23.785Z,61.64
2022-11-01T14:31:57.373Z,62.05
2022-11-01T14:34:35.784Z,61.95
2022-11-01T14:37:19.205Z,62.75
2022-11-01T14:40:27.600Z,62.85
2022-11-01T14:43:07.305Z,62.58
2022-11-01T14:45:44.582Z,61.87
2022-11-01T14:48:22.832Z,62.19
2022-11-01T14:51:02.060Z,61.30
2022-11-01T14:53:37.304Z,62.04
2022-11-01T14:56:17.396Z,61.96
2022-11-01T14:58:50.526Z,62.07
2022-11-01T15:01:23.880Z,62.06
2022-11-01T15:03:58.640Z,62.55
2022-11-01T15:06:31.959Z,61.96
2022-11-01T15:09:05.045Z,61.90
2022-11-01T15:11:39.167Z,61.87
2022-11-01T15:14:11.999Z,62.61
2022-11-01T15:16:44.850Z,62.00
2022-11-01T15:19:22.954Z,61.63
2022-11-01T15:22:01.101Z,62.63
2022-11-01T15:24:35.478Z,63.41
2022-11-01T15:27:16.660Z,62.61
2022-11-01T15:29:50.046Z,62.99
2022-11-01T15:32:24.980Z,63.03
2022-11-01T15:34:59.813Z,62.55
2022-11-01T15:37:33.663Z,63.28
2022-11-01T15:40:27.672Z,62.81
2022-11-01T15:43:03.171Z,62.10
2022-11-01T15:45:38.590Z,62.71
2022-11-01T15:48:18.328Z,63.20
2022-11-01T15:50:54.371Z,62.97
2022-11-01T15:53:31.061Z,63.17
2022-11-01T15:56:08.261Z,63.26
2022-11-01T15:58:48.945Z,63.69
2022-11-01T16:01:24.080Z,62.66
2022-11-01T16:04:01.646Z,63.20
2022-11-01T16:06:40.155Z,63.03
2022-11-01T16:09:23.366Z,63.06
2022-11-01T16:11:58.667Z,62.92
2022-11-01T16:14:37.773Z,63.13
2022-11-01T16:17:31.844Z,62.95
2022-11-01T16:20:25.199Z,63.53
2022-11-01T16:23:00.892Z,63.21
2022-11-01T16:25:35.939Z,63.84
2022-11-01T16:28:30.639Z,64.00
2022-11-01T16:31:04.923Z,63.14
2022-11-01T16:33:46.278Z,63.47
2022-11-01T16:36:34.962Z,63.51
2022-11-01T16:39:31.694Z,63.30
2022-11-01T16:42:04.864Z,63.43
2022-11-01T16:44:37.508Z,63.65
2022-11-01T16:47:14.925Z,63.46
2022-11-01T16:49:49.351Z,63.39
2022-11-01T16:52:22.432Z,63.20
2022-11-01T16:54:55.394Z,63.79
2022-11-01T16:57:29.979Z,64.01
2022-11-01T17:00:04.617Z,63.92
2022-11-01T17:02:40.500Z,63.85
2022-11-01T17:05:20.883Z,63.97
2022-11-01T17:07:53.815Z,63.57
2022-11-01T17:10:27.010Z,63.90
2022-11-01T17:13:03.364Z,63.94
2022-11-01T17:15:41.276Z,64.57
2022-11-01T17:18:18.895Z,64.15
2022-11-01T17:20:51.771Z,64.11
2022-11-01T17:23:26.316Z,64.09
2022-11-01T17:25:59.134Z,64.13
2022-11-01T17:28:32.060Z,64.41
2022-11-01T17:31:04.909Z,64.08
2022-11-01T17:33:39.191Z,64.46
2022-11-01T17:36:15.227Z,63.72
2022-11-01T17:38:50.261Z,63.68
2022-11-01T17:41:23.032Z,63.87
2022-11-01T17:43:55.872Z,63.83
2022-11-01T17:46:28.802Z,64.44
2022-11-01T17:49:02.865Z,64.25
2022-11-01T17:51:35.706Z,64.28
2022-11-01T17:54:08.662Z,64.16
2022-11-01T17:56:41.626Z,64.46
2022-11-01T17:59:14.324Z,64.78
2022-11-01T18:01:47.280Z,64.19
2022-11-01T18:04:21.545Z,63.98
2022-11-01T18:06:54.216Z,64.36
2022-11-01T18:09:27.484Z,63.87
2022-11-01T18:12:04.498Z,64.37
2022-11-01T18:17:39.102Z,64.04
2022-11-01T18:20:27.999Z,64.38
2022-11-01T18:23:04.456Z,64.66
2022-11-01T18:25:41.114Z,64.65
2022-11-01T18:28:15.199Z,64.50
2022-11-01T18:30:51.998Z,64.62
2022-11-01T18:33:33.352Z,65.09
2022-11-01T18:36:13.515Z,64.73
2022-11-01T18:38:56.186Z,65.06
2022-11-01T18:41:29.046Z,64.92
2022-11-01T18:44:03.908Z,65.30
2022-11-01T18:46:42.389Z,65.23
2022-11-01T18:49:18.124Z,65.45
2022-11-01T18:51:52.494Z,65.00
2022-11-01T18:54:26.992Z,65.55
2022-11-01T18:57:07.719Z,65.48
2022-11-01T18:59:41.611Z,65.60
2022-11-01T19:02:16.159Z,66.15
2022-11-01T19:04:51.440Z,66.34
2022-11-01T19:07:35.401Z,66.64
2022-11-01T19:10:19.938Z,66.59
2022-11-01T19:12:55.138Z,66.71
2022-11-01T19:15:29.697Z,66.68
2022-11-01T19:18:04.449Z,67.08
2022-11-01T19:20:45.884Z,66.93
2022-11-01T19:23:24.401Z,67.12
2022-11-01T19:25:57.416Z,67.37
2022-11-01T19:28:33.338Z,67.24
2022-11-01T19:31:10.040Z,67.18
2022-11-01T19:33:46.011Z,67.21
2022-11-01T19:36:20.716Z,66.85
2022-11-01T19:38:54.868Z,67.18
2022-11-01T19:41:34.329Z,66.98
2022-11-01T19:44:14.858Z,67.19
2022-11-01T19:46:48.552Z,67.45
2022-11-01T19:49:25.300Z,67.40
2022-11-01T19:52:14.668Z,67.30
2022-11-01T19:54:52.608Z,67.29
2022-11-01T19:57:30.958Z,67.48
2022-11-01T20:00:19.562Z,67.74
2022-11-01T20:02:55.828Z,67.48
2022-11-01T20:05:33.121Z,67.79
2022-11-01T20:08:15.180Z,67.92
2022-11-01T20:10:49.639Z,68.62
2022-11-01T20:13:22.849Z,68.35
2022-11-01T20:15:55.928Z,68.37
2022-11-01T20:18:28.885Z,68.36
2022-11-01T20:21:05.793Z,68.29
2022-11-01T20:23:38.927Z,68.35
2022-11-01T20:26:13.110Z,68.47
2022-11-01T20:28:45.733Z,68.01
2022-11-01T20:31:19.586Z,68.10
2022-11-01T20:33:52.857Z,68.10
2022-11-01T20:36:25.682Z,67.99
2022-11-01T20:38:58.487Z,68.25
2022-11-01T20:41:33.014Z,67.83
2022-11-01T20:44:06.144Z,68.18
2022-11-01T20:46:38.821Z,68.53
2022-11-01T20:49:11.872Z,68.60
2022-11-01T20:51:46.895Z,67.71
2022-11-01T20:54:19.803Z,68.00
2022-11-01T20:56:53.959Z,67.90
2022-11-01T20:59:26.892Z,67.62
2022-11-01T21:02:01.118Z,67.90
2022-11-01T21:04:34.700Z,68.22
2022-11-01T21:07:12.452Z,67.93
2022-11-01T21:09:47.421Z,68.37
2022-11-01T21:12:38.550Z,67.75
2022-11-01T21:15:33.692Z,67.99
2022-11-01T21:18:31.100Z,68.05
2022-11-01T21:21:35.262Z,68.17
2022-11-01T21:24:30.014Z,67.77
2022-11-01T21:27:14.508Z,67.86
2022-11-01T21:29:49.707Z,68.71
2022-11-01T21:32:29.717Z,68.30
2022-11-01T21:35:32.334Z,68.11
2022-11-01T21:38:29.866Z,68.10
2022-11-01T21:41:16.744Z,67.66
2022-11-01T21:43:49.534Z,68.07
2022-11-01T21:46:24.982Z,68.14
2022-11-01T21:49:00.249Z,67.82
2022-11-01T21:51:32.951Z,67.93
2022-11-01T21:54:05.660Z,68.19
2022-11-01T21:56:38.510Z,68.35
2022-11-01T21:59:11.672Z,68.43
2022-11-01T22:01:48.665Z,68.23
2022-11-01T22:04:23.462Z,68.61
2022-11-01T22:07:00.075Z,69.09
2022-11-01T22:09:33.269Z,68.83
2022-11-01T22:12:07.318Z,68.87
2022-11-01T22:14:40.044Z,68.82
2022-11-01T22:17:14.087Z,69.04
2022-11-01T22:19:47.157Z,68.74
2022-11-01T22:22:19.821Z,68.68
2022-11-01T22:24:52.665Z,68.76
2022-11-01T22:27:25.711Z,68.90
2022-11-01T22:29:58.275Z,68.93
2022-11-01T22:32:32.488Z,68.87
2022-11-01T22:35:05.794Z,68.92
2022-11-01T22:37:38.707Z,69.61
2022-11-01T22:40:13.025Z,69.36
2022-11-01T22:42:47.812Z,68.69
2022-11-01T22:45:20.471Z,68.94
2022-11-01T22:47:54.704Z,69.52
2022-11-01T22:50:29.435Z,69.65
2022-11-01T22:53:02.450Z,69.67
2022-11-01T22:55:37.397Z,69.20
2022-11-01T22:58:29.505Z,69.76
2022-11-01T23:01:05.219Z,69.27
2022-11-01T23:03:41.646Z,69.70
2022-11-01T23:06:32.363Z,70.24
2022-11-01T23:09:15.876Z,69.93
2022-11-01T23:12:11.415Z,69.98
2022-11-01T23:14:46.814Z,69.64
2022-11-01T23:17:22.433Z,69.97
2022-11-01T23:20:00.057Z,69.57
2022-11-01T23:22:36.461Z,70.03
2022-11-01T23:25:10.727Z,69.65
2022-11-01T23:27:45.068Z,69.59
2022-11-01T23:30:20.397Z,69.83
2022-11-01T23:32:53.783Z,69.38
2022-11-01T23:35:28.150Z,69.88
2022-11-01T23:38:00.847Z,70.00
2022-11-01T23:40:34.491Z,70.08
2022-11-01T23:43:21.620Z,69.87
2022-11-01T23:45:55.124Z,69.55
2022-11-01T23:48:27.871Z,69.85
2022-11-01T23:51:02.349Z,70.07
2022-11-01T23:53:37.258Z,69.56
2022-11-01T23:56:10.855Z,69.17
2022-11-01T23:58:43.712Z,68.89
